sensor_id;sensor_type;location;lat;lon;timestamp;P1;durP1;ratioP1;P2;durP2;ratioP2
20844;SDS011;10583;49.084;8.646;2023-02-01T00:01:54;6.50;;;6.50;;
20844;SDS011;10583;49.084;8.646;2023-02-01T00:04:21;6.87;;;6.87;;
20844;SDS011;10583;49.084;8.646;2023-02-01T00:06:48;6.67;;;6.67;;
20844;SDS011;10583;49.084;8.646;2023-02-01T00:09:15;5.80;;;5.80;;
20844;SDS011;10583;49.084;8.646;2023-02-01T00:11:43;6.07;;;6.07;;
20844;SDS011;10583;49.084;8.646;2023-02-01T00:14:10;6.90;;;6.90;;
20844;SDS011;10583;49.084;8.646;2023-02-01T00:16:37;6.30;;;6.30;;
20844;SDS011;10583;49.084;8.646;2023-02-01T00:19:05;6.23;;;6.23;;
20844;SDS011;10583;49.084;8.646;2023-02-01T00:21:33;6.27;;;6.27;;
20844;SDS011;10583;49.084;8.646;2023-02-01T00:24:00;5.70;;;5.70;;
20844;SDS011;10583;49.084;8.646;2023-02-01T00:26:27;5.80;;;5.80;;
20844;SDS011;10583;49.084;8.646;2023-02-01T00:28:59;6.40;;;6.40;;
20844;SDS011;10583;49.084;8.646;2023-02-01T00:31:26;6.40;;;6.40;;
20844;SDS011;10583;49.084;8.646;2023-02-01T00:33:53;6.10;;;6.10;;
20844;SDS011;10583;49.084;8.646;2023-02-01T00:36:20;6.10;;;6.10;;
20844;SDS011;10583;49.084;8.646;2023-02-01T00:38:47;5.90;;;5.90;;
20844;SDS011;10583;49.084;8.646;2023-02-01T00:41:14;6.13;;;6.13;;
20844;SDS011;10583;49.084;8.646;2023-02-01T00:43:42;5.87;;;5.87;;
20844;SDS011;10583;49.084;8.646;2023-02-01T00:46:11;5.87;;;5.87;;
20844;SDS011;10583;49.084;8.646;2023-02-01T00:48:39;5.37;;;5.37;;
20844;SDS011;10583;49.084;8.646;2023-02-01T00:51:08;5.33;;;5.33;;
20844;SDS011;10583;49.084;8.646;2023-02-01T00:53:36;6.00;;;6.00;;
20844;SDS011;10583;49.084;8.646;2023-02-01T00:56:03;5.33;;;5.33;;
20844;SDS011;10583;49.084;8.646;2023-02-01T00:58:30;5.33;;;5.33;;
20844;SDS011;10583;49.084;8.646;2023-02-01T01:01:00;5.23;;;5.23;;
20844;SDS011;10583;49.084;8.646;2023-02-01T01:03:30;5.70;;;5.70;;
20844;SDS011;10583;49.084;8.646;2023-02-01T01:05:59;4.97;;;4.97;;
20844;SDS011;10583;49.084;8.646;2023-02-01T01:08:27;5.20;;;5.20;;
20844;SDS011;10583;49.084;8.646;2023-02-01T01:10:54;4.87;;;4.87;;
20844;SDS011;10583;49.084;8.646;2023-02-01T01:13:22;5.80;;;5.80;;
20844;SDS011;10583;49.084;8.646;2023-02-01T01:15:48;5.10;;;5.10;;
20844;SDS011;10583;49.084;8.646;2023-02-01T01:18:15;4.73;;;4.73;;
20844;SDS011;10583;49.084;8.646;2023-02-01T01:20:43;4.60;;;4.60;;
20844;SDS011;10583;49.084;8.646;2023-02-01T01:23:10;4.70;;;4.70;;
20844;SDS011;10583;49.084;8.646;2023-02-01T01:25:37;4.77;;;4.77;;
20844;SDS011;10583;49.084;8.646;2023-02-01T01:28:04;4.60;;;4.60;;
20844;SDS011;10583;49.084;8.646;2023-02-01T01:30:31;4.87;;;4.87;;
20844;SDS011;10583;49.084;8.646;2023-02-01T01:32:58;4.43;;;4.43;;
20844;SDS011;10583;49.084;8.646;2023-02-01T01:35:25;4.23;;;4.23;;
20844;SDS011;10583;49.084;8.646;2023-02-01T01:37:53;4.50;;;4.50;;
20844;SDS011;10583;49.084;8.646;2023-02-01T01:40:20;4.40;;;4.40;;
20844;SDS011;10583;49.084;8.646;2023-02-01T01:42:46;4.63;;;4.63;;
20844;SDS011;10583;49.084;8.646;2023-02-01T01:45:20;4.77;;;4.77;;
20844;SDS011;10583;49.084;8.646;2023-02-01T01:47:51;4.90;;;4.90;;
20844;SDS011;10583;49.084;8.646;2023-02-01T01:50:20;4.57;;;4.57;;
20844;SDS011;10583;49.084;8.646;2023-02-01T01:52:51;5.00;;;5.00;;
20844;SDS011;10583;49.084;8.646;2023-02-01T01:55:20;4.70;;;4.70;;
20844;SDS011;10583;49.084;8.646;2023-02-01T01:57:50;4.10;;;4.10;;
20844;SDS011;10583;49.084;8.646;2023-02-01T02:00:21;3.77;;;3.77;;
20844;SDS011;10583;49.084;8.646;2023-02-01T02:02:52;4.00;;;4.00;;
20844;SDS011;10583;49.084;8.646;2023-02-01T02:05:23;3.97;;;3.97;;
20844;SDS011;10583;49.084;8.646;2023-02-01T02:07:50;3.93;;;3.93;;
20844;SDS011;10583;49.084;8.646;2023-02-01T02:10:20;3.90;;;3.90;;
20844;SDS011;10583;49.084;8.646;2023-02-01T02:13:07;3.60;;;3.60;;
20844;SDS011;10583;49.084;8.646;2023-02-01T02:15:35;4.10;;;4.10;;
20844;SDS011;10583;49.084;8.646;2023-02-01T02:18:07;3.87;;;3.87;;
20844;SDS011;10583;49.084;8.646;2023-02-01T02:21:00;3.83;;;3.83;;
20844;SDS011;10583;49.084;8.646;2023-02-01T02:26:56;3.20;;;3.20;;
20844;SDS011;10583;49.084;8.646;2023-02-01T02:29:53;3.87;;;3.87;;
20844;SDS011;10583;49.084;8.646;2023-02-01T02:32:53;3.07;;;3.07;;
20844;SDS011;10583;49.084;8.646;2023-02-01T02:35:37;3.87;;;3.87;;
20844;SDS011;10583;49.084;8.646;2023-02-01T02:38:12;3.67;;;3.67;;
20844;SDS011;10583;49.084;8.646;2023-02-01T02:40:47;4.13;;;4.13;;
20844;SDS011;10583;49.084;8.646;2023-02-01T02:43:22;4.07;;;4.07;;
20844;SDS011;10583;49.084;8.646;2023-02-01T02:46:12;4.03;;;4.03;;
20844;SDS011;10583;49.084;8.646;2023-02-01T02:49:06;3.70;;;3.70;;
20844;SDS011;10583;49.084;8.646;2023-02-01T02:51:41;3.90;;;3.90;;
20844;SDS011;10583;49.084;8.646;2023-02-01T02:54:30;4.33;;;4.33;;
20844;SDS011;10583;49.084;8.646;2023-02-01T02:57:13;3.90;;;3.90;;
20844;SDS011;10583;49.084;8.646;2023-02-01T03:00:01;4.03;;;4.03;;
20844;SDS011;10583;49.084;8.646;2023-02-01T03:02:47;4.00;;;4.00;;
20844;SDS011;10583;49.084;8.646;2023-02-01T03:05:33;3.80;;;3.80;;
20844;SDS011;10583;49.084;8.646;2023-02-01T03:08:03;3.87;;;3.87;;
20844;SDS011;10583;49.084;8.646;2023-02-01T03:10:36;4.00;;;4.00;;
20844;SDS011;10583;49.084;8.646;2023-02-01T03:13:10;3.70;;;3.70;;
20844;SDS011;10583;49.084;8.646;2023-02-01T03:15:42;3.50;;;3.50;;
20844;SDS011;10583;49.084;8.646;2023-02-01T03:18:15;3.60;;;3.60;;
20844;SDS011;10583;49.084;8.646;2023-02-01T03:20:48;3.53;;;3.53;;
20844;SDS011;10583;49.084;8.646;2023-02-01T03:23:19;3.70;;;3.70;;
20844;SDS011;10583;49.084;8.646;2023-02-01T03:25:52;3.40;;;3.40;;
20844;SDS011;10583;49.084;8.646;2023-02-01T03:28:20;3.70;;;3.70;;
20844;SDS011;10583;49.084;8.646;2023-02-01T03:30:49;3.20;;;3.20;;
20844;SDS011;10583;49.084;8.646;2023-02-01T03:33:17;3.10;;;3.10;;
20844;SDS011;10583;49.084;8.646;2023-02-01T03:35:50;3.50;;;3.50;;
20844;SDS011;10583;49.084;8.646;2023-02-01T03:38:27;3.90;;;3.90;;
20844;SDS011;10583;49.084;8.646;2023-02-01T03:40:59;3.47;;;3.47;;
20844;SDS011;10583;49.084;8.646;2023-02-01T03:43:36;4.00;;;4.00;;
20844;SDS011;10583;49.084;8.646;2023-02-01T03:46:21;3.97;;;3.97;;
20844;SDS011;10583;49.084;8.646;2023-02-01T03:48:52;3.83;;;3.83;;
20844;SDS011;10583;49.084;8.646;2023-02-01T03:51:21;4.00;;;4.00;;
20844;SDS011;10583;49.084;8.646;2023-02-01T03:53:50;4.00;;;4.00;;
20844;SDS011;10583;49.084;8.646;2023-02-01T03:56:19;4.10;;;4.10;;
20844;SDS011;10583;49.084;8.646;2023-02-01T03:58:49;3.90;;;3.90;;
20844;SDS011;10583;49.084;8.646;2023-02-01T04:01:24;4.47;;;4.47;;
20844;SDS011;10583;49.084;8.646;2023-02-01T04:03:52;4.20;;;4.20;;
20844;SDS011;10583;49.084;8.646;2023-02-01T04:06:19;3.70;;;3.70;;
20844;SDS011;10583;49.084;8.646;2023-02-01T04:08:46;3.40;;;3.40;;
20844;SDS011;10583;49.084;8.646;2023-02-01T04:11:14;4.10;;;4.10;;
20844;SDS011;10583;49.084;8.646;2023-02-01T04:13:41;4.20;;;4.20;;
20844;SDS011;10583;49.084;8.646;2023-02-01T04:16:07;3.87;;;3.87;;
20844;SDS011;10583;49.084;8.646;2023-02-01T04:18:34;4.83;;;4.83;;
20844;SDS011;10583;49.084;8.646;2023-02-01T04:21:00;4.27;;;4.27;;
20844;SDS011;10583;49.084;8.646;2023-02-01T04:23:27;4.50;;;4.50;;
20844;SDS011;10583;49.084;8.646;2023-02-01T04:25:58;3.77;;;3.77;;
20844;SDS011;10583;49.084;8.646;2023-02-01T04:28:27;4.50;;;4.50;;
20844;SDS011;10583;49.084;8.646;2023-02-01T04:30:54;4.40;;;4.40;;
20844;SDS011;10583;49.084;8.646;2023-02-01T04:33:21;3.90;;;3.90;;
20844;SDS011;10583;49.084;8.646;2023-02-01T04:35:48;4.07;;;4.07;;
20844;SDS011;10583;49.084;8.646;2023-02-01T04:38:15;3.83;;;3.83;;
20844;SDS011;10583;49.084;8.646;2023-02-01T04:40:41;3.73;;;3.73;;
20844;SDS011;10583;49.084;8.646;2023-02-01T04:43:08;4.27;;;4.27;;
20844;SDS011;10583;49.084;8.646;2023-02-01T04:45:36;4.33;;;4.33;;
20844;SDS011;10583;49.084;8.646;2023-02-01T04:48:03;4.10;;;4.10;;
20844;SDS011;10583;49.084;8.646;2023-02-01T04:50:30;4.13;;;4.13;;
20844;SDS011;10583;49.084;8.646;2023-02-01T04:52:57;4.20;;;4.20;;
20844;SDS011;10583;49.084;8.646;2023-02-01T04:55:24;3.97;;;3.97;;
20844;SDS011;10583;49.084;8.646;2023-02-01T04:57:50;4.60;;;4.60;;
20844;SDS011;10583;49.084;8.646;2023-02-01T05:00:17;4.27;;;4.27;;
20844;SDS011;10583;49.084;8.646;2023-02-01T05:02:45;5.33;;;5.33;;
20844;SDS011;10583;49.084;8.646;2023-02-01T05:05:12;4.67;;;4.67;;
20844;SDS011;10583;49.084;8.646;2023-02-01T05:07:39;5.17;;;5.17;;
20844;SDS011;10583;49.084;8.646;2023-02-01T05:10:06;5.03;;;5.03;;
20844;SDS011;10583;49.084;8.646;2023-02-01T05:12:34;4.40;;;4.40;;
20844;SDS011;10583;49.084;8.646;2023-02-01T05:15:18;5.03;;;5.03;;
20844;SDS011;10583;49.084;8.646;2023-02-01T05:17:46;4.97;;;4.97;;
20844;SDS011;10583;49.084;8.646;2023-02-01T05:20:13;4.20;;;4.20;;
20844;SDS011;10583;49.084;8.646;2023-02-01T05:22:40;4.83;;;4.83;;
20844;SDS011;10583;49.084;8.646;2023-02-01T05:25:07;4.07;;;4.07;;
20844;SDS011;10583;49.084;8.646;2023-02-01T05:27:34;3.87;;;3.87;;
20844;SDS011;10583;49.084;8.646;2023-02-01T05:30:01;4.60;;;4.60;;
20844;SDS011;10583;49.084;8.646;2023-02-01T05:32:28;3.53;;;3.53;;
20844;SDS011;10583;49.084;8.646;2023-02-01T05:34:56;3.73;;;3.73;;
20844;SDS011;10583;49.084;8.646;2023-02-01T05:37:23;3.87;;;3.87;;
20844;SDS011;10583;49.084;8.646;2023-02-01T05:39:50;3.80;;;3.80;;
20844;SDS011;10583;49.084;8.646;2023-02-01T05:42:17;3.97;;;3.97;;
20844;SDS011;10583;49.084;8.646;2023-02-01T05:44:44;4.10;;;4.10;;
20844;SDS011;10583;49.084;8.646;2023-02-01T05:47:10;4.10;;;4.10;;
20844;SDS011;10583;49.084;8.646;2023-02-01T05:49:37;4.43;;;4.43;;
20844;SDS011;10583;49.084;8.646;2023-02-01T05:52:05;4.67;;;4.67;;
20844;SDS011;10583;49.084;8.646;2023-02-01T05:54:32;4.50;;;4.50;;
20844;SDS011;10583;49.084;8.646;2023-02-01T05:56:59;4.57;;;4.57;;
20844;SDS011;10583;49.084;8.646;2023-02-01T05:59:25;5.03;;;5.03;;
20844;SDS011;10583;49.084;8.646;2023-02-01T06:01:52;4.90;;;4.90;;
20844;SDS011;10583;49.084;8.646;2023-02-01T06:04:19;5.47;;;5.47;;
20844;SDS011;10583;49.084;8.646;2023-02-01T06:06:45;5.23;;;5.23;;
20844;SDS011;10583;49.084;8.646;2023-02-01T06:09:16;6.07;;;6.07;;
20844;SDS011;10583;49.084;8.646;2023-02-01T06:11:43;5.50;;;5.50;;
20844;SDS011;10583;49.084;8.646;2023-02-01T06:14:10;6.00;;;6.00;;
20844;SDS011;10583;49.084;8.646;2023-02-01T06:16:36;5.40;;;5.40;;
20844;SDS011;10583;49.084;8.646;2023-02-01T06:19:03;6.37;;;6.37;;
20844;SDS011;10583;49.084;8.646;2023-02-01T06:21:30;6.40;;;6.40;;
20844;SDS011;10583;49.084;8.646;2023-02-01T06:23:58;5.97;;;5.97;;
20844;SDS011;10583;49.084;8.646;2023-02-01T06:26:26;6.50;;;6.50;;
20844;SDS011;10583;49.084;8.646;2023-02-01T06:28:54;6.37;;;6.37;;
20844;SDS011;10583;49.084;8.646;2023-02-01T06:31:21;6.40;;;6.40;;
20844;SDS011;10583;49.084;8.646;2023-02-01T06:33:48;6.30;;;6.30;;
20844;SDS011;10583;49.084;8.646;2023-02-01T06:36:15;6.20;;;6.20;;
20844;SDS011;10583;49.084;8.646;2023-02-01T06:38:43;6.90;;;6.90;;
20844;SDS011;10583;49.084;8.646;2023-02-01T06:41:10;7.03;;;7.03;;
20844;SDS011;10583;49.084;8.646;2023-02-01T06:43:38;6.33;;;6.33;;
20844;SDS011;10583;49.084;8.646;2023-02-01T06:46:06;6.70;;;6.70;;
20844;SDS011;10583;49.084;8.646;2023-02-01T06:48:34;6.33;;;6.33;;
20844;SDS011;10583;49.084;8.646;2023-02-01T06:51:00;6.90;;;6.90;;
20844;SDS011;10583;49.084;8.646;2023-02-01T06:53:28;7.30;;;7.30;;
20844;SDS011;10583;49.084;8.646;2023-02-01T06:55:55;8.37;;;8.37;;
20844;SDS011;10583;49.084;8.646;2023-02-01T06:58:27;9.10;;;9.07;;
20844;SDS011;10583;49.084;8.646;2023-02-01T07:00:56;8.80;;;8.80;;
20844;SDS011;10583;49.084;8.646;2023-02-01T07:03:23;7.93;;;7.93;;
20844;SDS011;10583;49.084;8.646;2023-02-01T07:05:56;7.97;;;7.97;;
20844;SDS011;10583;49.084;8.646;2023-02-01T07:08:24;8.93;;;8.93;;
20844;SDS011;10583;49.084;8.646;2023-02-01T07:10:52;8.13;;;8.13;;
20844;SDS011;10583;49.084;8.646;2023-02-01T07:13:19;16.00;;;15.90;;
20844;SDS011;10583;49.084;8.646;2023-02-01T07:15:46;8.60;;;8.60;;
20844;SDS011;10583;49.084;8.646;2023-02-01T07:18:14;7.60;;;7.60;;
20844;SDS011;10583;49.084;8.646;2023-02-01T07:20:40;9.00;;;9.00;;
20844;SDS011;10583;49.084;8.646;2023-02-01T07:23:08;11.70;;;11.60;;
20844;SDS011;10583;49.084;8.646;2023-02-01T07:25:36;7.33;;;7.33;;
20844;SDS011;10583;49.084;8.646;2023-02-01T07:28:02;6.70;;;6.70;;
20844;SDS011;10583;49.084;8.646;2023-02-01T07:30:29;6.37;;;6.37;;
20844;SDS011;10583;49.084;8.646;2023-02-01T07:32:56;6.87;;;6.87;;
20844;SDS011;10583;49.084;8.646;2023-02-01T07:35:27;7.60;;;7.60;;
20844;SDS011;10583;49.084;8.646;2023-02-01T07:37:54;7.10;;;7.10;;
20844;SDS011;10583;49.084;8.646;2023-02-01T07:40:22;7.33;;;7.33;;
20844;SDS011;10583;49.084;8.646;2023-02-01T07:42:53;6.47;;;6.47;;
20844;SDS011;10583;49.084;8.646;2023-02-01T07:45:20;6.93;;;6.93;;
20844;SDS011;10583;49.084;8.646;2023-02-01T07:47:46;6.67;;;6.67;;
20844;SDS011;10583;49.084;8.646;2023-02-01T07:50:13;7.20;;;7.20;;
20844;SDS011;10583;49.084;8.646;2023-02-01T07:52:41;6.67;;;6.67;;
20844;SDS011;10583;49.084;8.646;2023-02-01T07:55:08;6.40;;;6.40;;
20844;SDS011;10583;49.084;8.646;2023-02-01T07:57:35;6.33;;;6.33;;
20844;SDS011;10583;49.084;8.646;2023-02-01T08:00:02;6.20;;;6.20;;
20844;SDS011;10583;49.084;8.646;2023-02-01T08:02:59;6.83;;;6.83;;
20844;SDS011;10583;49.084;8.646;2023-02-01T08:05:26;6.57;;;6.57;;
20844;SDS011;10583;49.084;8.646;2023-02-01T08:07:54;6.30;;;6.30;;
20844;SDS011;10583;49.084;8.646;2023-02-01T08:10:21;5.77;;;5.77;;
20844;SDS011;10583;49.084;8.646;2023-02-01T08:12:48;5.50;;;5.50;;
20844;SDS011;10583;49.084;8.646;2023-02-01T08:15:17;6.03;;;6.03;;
20844;SDS011;10583;49.084;8.646;2023-02-01T08:17:46;6.00;;;6.00;;
20844;SDS011;10583;49.084;8.646;2023-02-01T08:20:13;5.63;;;5.63;;
20844;SDS011;10583;49.084;8.646;2023-02-01T08:22:40;5.70;;;5.70;;
20844;SDS011;10583;49.084;8.646;2023-02-01T08:25:08;5.07;;;5.07;;
20844;SDS011;10583;49.084;8.646;2023-02-01T08:27:35;5.23;;;5.23;;
20844;SDS011;10583;49.084;8.646;2023-02-01T08:30:03;4.67;;;4.67;;
20844;SDS011;10583;49.084;8.646;2023-02-01T08:32:32;4.37;;;4.37;;
20844;SDS011;10583;49.084;8.646;2023-02-01T08:35:00;4.93;;;4.93;;
20844;SDS011;10583;49.084;8.646;2023-02-01T08:37:27;4.80;;;4.80;;
20844;SDS011;10583;49.084;8.646;2023-02-01T08:39:53;4.67;;;4.67;;
20844;SDS011;10583;49.084;8.646;2023-02-01T08:42:21;5.00;;;5.00;;
20844;SDS011;10583;49.084;8.646;2023-02-01T08:45:05;4.30;;;4.30;;
20844;SDS011;10583;49.084;8.646;2023-02-01T08:47:33;4.07;;;4.07;;
20844;SDS011;10583;49.084;8.646;2023-02-01T08:50:01;4.20;;;4.20;;
20844;SDS011;10583;49.084;8.646;2023-02-01T08:52:28;4.57;;;4.57;;
20844;SDS011;10583;49.084;8.646;2023-02-01T08:54:54;3.90;;;3.90;;
20844;SDS011;10583;49.084;8.646;2023-02-01T08:57:22;4.40;;;4.40;;
20844;SDS011;10583;49.084;8.646;2023-02-01T08:59:49;4.40;;;4.40;;
20844;SDS011;10583;49.084;8.646;2023-02-01T09:02:16;4.60;;;4.60;;
20844;SDS011;10583;49.084;8.646;2023-02-01T09:04:43;3.90;;;3.90;;
20844;SDS011;10583;49.084;8.646;2023-02-01T09:07:09;3.90;;;3.90;;
20844;SDS011;10583;49.084;8.646;2023-02-01T09:09:38;4.63;;;4.63;;
20844;SDS011;10583;49.084;8.646;2023-02-01T09:12:05;4.70;;;4.70;;
20844;SDS011;10583;49.084;8.646;2023-02-01T09:14:33;4.17;;;4.17;;
20844;SDS011;10583;49.084;8.646;2023-02-01T09:17:00;3.97;;;3.97;;
20844;SDS011;10583;49.084;8.646;2023-02-01T09:19:26;3.70;;;3.70;;
20844;SDS011;10583;49.084;8.646;2023-02-01T09:21:53;4.40;;;4.40;;
20844;SDS011;10583;49.084;8.646;2023-02-01T09:24:20;3.87;;;3.87;;
20844;SDS011;10583;49.084;8.646;2023-02-01T09:26:47;3.80;;;3.80;;
20844;SDS011;10583;49.084;8.646;2023-02-01T09:29:14;3.97;;;3.97;;
20844;SDS011;10583;49.084;8.646;2023-02-01T09:31:42;4.70;;;4.70;;
20844;SDS011;10583;49.084;8.646;2023-02-01T09:34:09;4.00;;;4.00;;
20844;SDS011;10583;49.084;8.646;2023-02-01T09:36:36;3.77;;;3.77;;
20844;SDS011;10583;49.084;8.646;2023-02-01T09:39:02;4.57;;;4.57;;
20844;SDS011;10583;49.084;8.646;2023-02-01T09:41:32;3.77;;;3.77;;
20844;SDS011;10583;49.084;8.646;2023-02-01T09:44:10;3.87;;;3.87;;
20844;SDS011;10583;49.084;8.646;2023-02-01T09:46:45;3.63;;;3.63;;
20844;SDS011;10583;49.084;8.646;2023-02-01T09:49:13;3.70;;;3.70;;
20844;SDS011;10583;49.084;8.646;2023-02-01T09:51:45;4.63;;;4.63;;
20844;SDS011;10583;49.084;8.646;2023-02-01T09:54:15;3.73;;;3.73;;
20844;SDS011;10583;49.084;8.646;2023-02-01T09:56:45;4.07;;;4.07;;
20844;SDS011;10583;49.084;8.646;2023-02-01T09:59:18;3.43;;;3.43;;
20844;SDS011;10583;49.084;8.646;2023-02-01T10:01:53;3.63;;;3.63;;
20844;SDS011;10583;49.084;8.646;2023-02-01T10:04:20;3.90;;;3.90;;
20844;SDS011;10583;49.084;8.646;2023-02-01T10:06:51;3.87;;;3.87;;
20844;SDS011;10583;49.084;8.646;2023-02-01T10:12:31;3.57;;;3.57;;
20844;SDS011;10583;49.084;8.646;2023-02-01T10:15:15;3.70;;;3.70;;
20844;SDS011;10583;49.084;8.646;2023-02-01T10:17:56;3.47;;;3.47;;
20844;SDS011;10583;49.084;8.646;2023-02-01T10:20:36;3.83;;;3.83;;
20844;SDS011;10583;49.084;8.646;2023-02-01T10:23:23;3.77;;;3.77;;
20844;SDS011;10583;49.084;8.646;2023-02-01T10:25:59;4.80;;;4.70;;
20844;SDS011;10583;49.084;8.646;2023-02-01T10:28:31;4.00;;;4.00;;
20844;SDS011;10583;49.084;8.646;2023-02-01T10:31:03;3.87;;;3.87;;
20844;SDS011;10583;49.084;8.646;2023-02-01T10:33:33;4.07;;;4.07;;
20844;SDS011;10583;49.084;8.646;2023-02-01T10:36:08;3.43;;;3.43;;
20844;SDS011;10583;49.084;8.646;2023-02-01T10:38:40;4.00;;;4.00;;
20844;SDS011;10583;49.084;8.646;2023-02-01T10:41:10;4.07;;;4.07;;
20844;SDS011;10583;49.084;8.646;2023-02-01T10:43:39;4.43;;;4.43;;
20844;SDS011;10583;49.084;8.646;2023-02-01T10:46:06;4.00;;;4.00;;
20844;SDS011;10583;49.084;8.646;2023-02-01T10:48:35;4.27;;;4.27;;
20844;SDS011;10583;49.084;8.646;2023-02-01T10:51:05;3.90;;;3.90;;
20844;SDS011;10583;49.084;8.646;2023-02-01T10:53:33;4.07;;;4.07;;
20844;SDS011;10583;49.084;8.646;2023-02-01T10:56:08;3.70;;;3.70;;
20844;SDS011;10583;49.084;8.646;2023-02-01T10:58:35;3.40;;;3.40;;
20844;SDS011;10583;49.084;8.646;2023-02-01T11:01:09;3.43;;;3.43;;
20844;SDS011;10583;49.084;8.646;2023-02-01T11:03:45;3.93;;;3.83;;
20844;SDS011;10583;49.084;8.646;2023-02-01T11:06:22;3.40;;;3.40;;
20844;SDS011;10583;49.084;8.646;2023-02-01T11:08:53;3.97;;;3.97;;
20844;SDS011;10583;49.084;8.646;2023-02-01T11:11:23;4.13;;;4.13;;
20844;SDS011;10583;49.084;8.646;2023-02-01T11:13:51;3.90;;;3.90;;
20844;SDS011;10583;49.084;8.646;2023-02-01T11:16:28;4.03;;;4.03;;
20844;SDS011;10583;49.084;8.646;2023-02-01T11:19:00;4.13;;;4.10;;
20844;SDS011;10583;49.084;8.646;2023-02-01T11:21:26;3.90;;;3.90;;
20844;SDS011;10583;49.084;8.646;2023-02-01T11:23:53;3.97;;;3.97;;
20844;SDS011;10583;49.084;8.646;2023-02-01T11:26:21;4.17;;;4.17;;
20844;SDS011;10583;49.084;8.646;2023-02-01T11:28:53;3.70;;;3.70;;
20844;SDS011;10583;49.084;8.646;2023-02-01T11:31:24;3.57;;;3.57;;
20844;SDS011;10583;49.084;8.646;2023-02-01T11:33:52;3.07;;;3.07;;
20844;SDS011;10583;49.084;8.646;2023-02-01T11:36:26;3.57;;;3.57;;
20844;SDS011;10583;49.084;8.646;2023-02-01T11:39:06;4.27;;;4.27;;
20844;SDS011;10583;49.084;8.646;2023-02-01T11:41:40;3.67;;;3.67;;
20844;SDS011;10583;49.084;8.646;2023-02-01T11:44:15;3.87;;;3.77;;
20844;SDS011;10583;49.084;8.646;2023-02-01T11:46:46;3.37;;;3.37;;
20844;SDS011;10583;49.084;8.646;2023-02-01T11:49:15;3.70;;;3.70;;
20844;SDS011;10583;49.084;8.646;2023-02-01T11:51:51;3.37;;;3.37;;
20844;SDS011;10583;49.084;8.646;2023-02-01T11:54:31;3.80;;;3.80;;
20844;SDS011;10583;49.084;8.646;2023-02-01T11:57:15;4.10;;;4.10;;
20844;SDS011;10583;49.084;8.646;2023-02-01T12:00:02;3.60;;;3.60;;
20844;SDS011;10583;49.084;8.646;2023-02-01T12:03:00;4.00;;;4.00;;
20844;SDS011;10583;49.084;8.646;2023-02-01T12:05:47;3.67;;;3.67;;
20844;SDS011;10583;49.084;8.646;2023-02-01T12:08:29;3.70;;;3.70;;
20844;SDS011;10583;49.084;8.646;2023-02-01T12:11:17;3.63;;;3.63;;
20844;SDS011;10583;49.084;8.646;2023-02-01T12:13:58;4.00;;;4.00;;
20844;SDS011;10583;49.084;8.646;2023-02-01T12:16:36;3.77;;;3.77;;
20844;SDS011;10583;49.084;8.646;2023-02-01T12:19:16;4.20;;;4.20;;
20844;SDS011;10583;49.084;8.646;2023-02-01T12:22:04;3.87;;;3.87;;
20844;SDS011;10583;49.084;8.646;2023-02-01T12:24:46;4.07;;;4.07;;
20844;SDS011;10583;49.084;8.646;2023-02-01T12:27:38;4.03;;;4.00;;
20844;SDS011;10583;49.084;8.646;2023-02-01T12:30:34;6.03;;;6.03;;
20844;SDS011;10583;49.084;8.646;2023-02-01T12:33:13;15.57;;;15.47;;
20844;SDS011;10583;49.084;8.646;2023-02-01T12:35:53;13.93;;;13.83;;
20844;SDS011;10583;49.084;8.646;2023-02-01T12:38:44;3.80;;;3.80;;
20844;SDS011;10583;49.084;8.646;2023-02-01T12:41:22;4.90;;;4.87;;
20844;SDS011;10583;49.084;8.646;2023-02-01T12:44:05;5.40;;;5.30;;
20844;SDS011;10583;49.084;8.646;2023-02-01T12:46:39;4.40;;;4.40;;
20844;SDS011;10583;49.084;8.646;2023-02-01T12:49:11;4.00;;;4.00;;
20844;SDS011;10583;49.084;8.646;2023-02-01T12:51:42;3.73;;;3.73;;
20844;SDS011;10583;49.084;8.646;2023-02-01T12:54:13;4.27;;;4.27;;
20844;SDS011;10583;49.084;8.646;2023-02-01T12:56:47;3.73;;;3.73;;
20844;SDS011;10583;49.084;8.646;2023-02-01T12:59:21;3.77;;;3.77;;
20844;SDS011;10583;49.084;8.646;2023-02-01T13:01:53;4.40;;;4.30;;
20844;SDS011;10583;49.084;8.646;2023-02-01T13:04:25;4.47;;;4.37;;
20844;SDS011;10583;49.084;8.646;2023-02-01T13:06:57;3.93;;;3.93;;
20844;SDS011;10583;49.084;8.646;2023-02-01T13:09:33;3.87;;;3.87;;
20844;SDS011;10583;49.084;8.646;2023-02-01T13:12:09;4.40;;;4.30;;
20844;SDS011;10583;49.084;8.646;2023-02-01T13:14:40;4.20;;;4.10;;
20844;SDS011;10583;49.084;8.646;2023-02-01T13:17:12;4.10;;;4.00;;
20844;SDS011;10583;49.084;8.646;2023-02-01T13:19:42;4.50;;;4.40;;
20844;SDS011;10583;49.084;8.646;2023-02-01T13:22:13;4.50;;;4.50;;
20844;SDS011;10583;49.084;8.646;2023-02-01T13:24:45;4.27;;;4.27;;
20844;SDS011;10583;49.084;8.646;2023-02-01T13:27:15;4.47;;;4.47;;
20844;SDS011;10583;49.084;8.646;2023-02-01T13:29:45;3.77;;;3.77;;
20844;SDS011;10583;49.084;8.646;2023-02-01T13:35:19;3.83;;;3.83;;
20844;SDS011;10583;49.084;8.646;2023-02-01T13:38:04;3.50;;;3.50;;
20844;SDS011;10583;49.084;8.646;2023-02-01T13:40:44;3.87;;;3.80;;
20844;SDS011;10583;49.084;8.646;2023-02-01T13:43:21;4.10;;;4.10;;
20844;SDS011;10583;49.084;8.646;2023-02-01T13:45:52;4.20;;;4.17;;
20844;SDS011;10583;49.084;8.646;2023-02-01T13:48:25;4.40;;;4.40;;
20844;SDS011;10583;49.084;8.646;2023-02-01T13:50:55;4.13;;;4.03;;
20844;SDS011;10583;49.084;8.646;2023-02-01T13:53:26;3.83;;;3.83;;
20844;SDS011;10583;49.084;8.646;2023-02-01T13:55:57;4.50;;;4.40;;
20844;SDS011;10583;49.084;8.646;2023-02-01T13:58:31;4.10;;;4.10;;
20844;SDS011;10583;49.084;8.646;2023-02-01T14:07:16;4.73;;;4.73;;
20844;SDS011;10583;49.084;8.646;2023-02-01T14:09:47;3.77;;;3.77;;
20844;SDS011;10583;49.084;8.646;2023-02-01T14:15:22;3.83;;;3.83;;
20844;SDS011;10583;49.084;8.646;2023-02-01T14:17:50;4.27;;;4.23;;
20844;SDS011;10583;49.084;8.646;2023-02-01T14:23:17;4.27;;;4.17;;
20844;SDS011;10583;49.084;8.646;2023-02-01T14:26:00;4.70;;;4.60;;
20844;SDS011;10583;49.084;8.646;2023-02-01T14:28:52;3.97;;;3.97;;
20844;SDS011;10583;49.084;8.646;2023-02-01T14:31:41;4.53;;;4.43;;
20844;SDS011;10583;49.084;8.646;2023-02-01T14:34:15;4.17;;;4.07;;
20844;SDS011;10583;49.084;8.646;2023-02-01T14:36:48;4.10;;;4.00;;
20844;SDS011;10583;49.084;8.646;2023-02-01T14:39:19;3.97;;;3.97;;
20844;SDS011;10583;49.084;8.646;2023-02-01T14:41:51;4.47;;;4.47;;
20844;SDS011;10583;49.084;8.646;2023-02-01T14:44:22;4.00;;;4.00;;
20844;SDS011;10583;49.084;8.646;2023-02-01T14:47:25;5.07;;;4.97;;
20844;SDS011;10583;49.084;8.646;2023-02-01T14:49:55;5.50;;;5.50;;
20844;SDS011;10583;49.084;8.646;2023-02-01T14:52:28;4.37;;;4.37;;
20844;SDS011;10583;49.084;8.646;2023-02-01T14:55:00;4.33;;;4.33;;
20844;SDS011;10583;49.084;8.646;2023-02-01T14:57:31;4.47;;;4.37;;
20844;SDS011;10583;49.084;8.646;2023-02-01T15:00:06;4.10;;;4.10;;
20844;SDS011;10583;49.084;8.646;2023-02-01T15:02:41;4.70;;;4.60;;
20844;SDS011;10583;49.084;8.646;2023-02-01T15:07:58;4.77;;;4.77;;
20844;SDS011;10583;49.084;8.646;2023-02-01T15:10:30;4.93;;;4.83;;
20844;SDS011;10583;49.084;8.646;2023-02-01T15:13:05;4.40;;;4.30;;
20844;SDS011;10583;49.084;8.646;2023-02-01T15:15:38;3.90;;;3.90;;
20844;SDS011;10583;49.084;8.646;2023-02-01T15:18:15;9.57;;;9.47;;
20844;SDS011;10583;49.084;8.646;2023-02-01T15:20:43;4.67;;;4.57;;
20844;SDS011;10583;49.084;8.646;2023-02-01T15:23:23;4.90;;;4.80;;
20844;SDS011;10583;49.084;8.646;2023-02-01T15:25:49;4.37;;;4.27;;
20844;SDS011;10583;49.084;8.646;2023-02-01T15:28:17;4.27;;;4.17;;
20844;SDS011;10583;49.084;8.646;2023-02-01T15:30:51;3.87;;;3.87;;
20844;SDS011;10583;49.084;8.646;2023-02-01T15:33:21;4.17;;;4.13;;
20844;SDS011;10583;49.084;8.646;2023-02-01T15:35:48;3.87;;;3.87;;
20844;SDS011;10583;49.084;8.646;2023-02-01T15:38:20;4.60;;;4.50;;